Time;durP1;ratioP1;P1;durP2;ratioP2;P2;SDS_P1;SDS_P2;PMS_P1;PMS_P2;Temp;Humidity;BMP_temperature;BMP_pressure;BME280_temperature;BME280_humidity;BME280_pressure;Samples;Min_cycle;Max_cycle;Signal;HPM_P1;HPM_P2
2023/05/07 04:55:04;;;;;;;10.50;3.75;;;;;;;10.06;100.00;96467.19;2090026;28;21064;-60
2023/05/07 06:43:09;;;;;;;5.20;3.67;;;;;;;15.58;76.07;96524.88;2084771;28;20549;-61
2023/05/07 06:45:14;;;;;;;9.60;3.08;;;;;;;15.64;74.10;96513.94;2093192;27;20548;-61
2023/05/07 06:46:16;;;;;;;5.80;2.80;;;;;;;15.95;74.23;96510.09;2075028;28;20239;-61
2023/05/07 06:48:34;;;;;;;8.43;3.35;;;;;;;16.44;72.47;96521.69;2084367;28;20578;-62
2023/05/07 06:49:35;;;;;;;7.55;3.15;;;;;;;16.60;70.58;96526.69;2087108;28;20192;-61
2023/05/07 06:50:37;;;;;;;5.50;2.60;;;;;;;16.55;70.22;96515.63;2083637;28;20201;-61
2023/05/07 06:51:38;;;;;;;5.53;2.72;;;;;;;16.49;71.00;96513.44;2072825;28;20212;-62
2023/05/07 06:52:40;;;;;;;4.80;2.85;;;;;;;16.73;69.91;96524.00;2073534;28;20205;-61
2023/05/07 06:53:41;;;;;;;10.27;2.95;;;;;;;16.77;70.16;96514.09;2071309;28;20198;-62
2023/05/07 06:54:43;;;;;;;5.80;3.63;;;;;;;16.84;69.67;96517.16;2071773;28;20229;-61
2023/05/07 06:55:44;;;;;;;5.40;2.97;;;;;;;16.76;69.55;96515.03;2072385;28;20488;-61
2023/05/07 06:56:45;;;;;;;4.95;2.47;;;;;;;16.96;68.94;96509.22;2072832;28;20225;-61
2023/05/07 06:57:47;;;;;;;5.35;2.80;;;;;;;17.15;68.67;96510.50;2072648;28;20190;-62
2023/05/07 06:58:48;;;;;;;6.13;2.40;;;;;;;17.18;68.55;96514.72;2073282;28;20244;-62
2023/05/07 06:59:50;;;;;;;7.03;2.88;;;;;;;17.11;68.86;96514.31;2073945;28;20208;-62
2023/05/07 07:00:51;;;;;;;5.95;2.83;;;;;;;17.17;68.47;96518.34;2072462;28;20232;-62
2023/05/07 07:01:53;;;;;;;5.03;2.75;;;;;;;17.16;68.12;96520.09;2073338;28;20800;-62
2023/05/07 07:02:55;;;;;;;5.55;2.50;;;;;;;17.26;68.12;96520.28;2073534;28;20208;-62
2023/05/07 07:03:56;;;;;;;4.65;2.90;;;;;;;17.52;67.33;96517.50;2073959;28;20202;-61
2023/05/07 07:04:58;;;;;;;4.95;2.30;;;;;;;17.83;66.57;96517.84;2073614;28;20198;-62
2023/05/07 07:06:01;;;;;;;4.53;2.40;;;;;;;17.71;66.28;96501.09;2071720;28;20294;-63
2023/05/07 07:07:03;;;;;;;5.80;2.70;;;;;;;17.97;66.47;96514.16;2074348;28;20240;-63
2023/05/07 07:08:05;;;;;;;3.60;2.40;;;;;;;18.19;64.89;96511.53;2073810;28;20210;-63
2023/05/07 07:09:06;;;;;;;9.38;2.97;;;;;;;18.17;64.95;96510.84;2070171;28;20201;-63
2023/05/07 07:10:08;;;;;;;9.02;2.83;;;;;;;18.40;64.38;96510.84;2070307;28;20202;-63
2023/05/07 07:11:10;;;;;;;8.30;3.35;;;;;;;18.44;65.48;96513.09;2073253;28;20282;-63
2023/05/07 07:12:11;;;;;;;7.90;2.63;;;;;;;18.57;64.93;96510.31;2076491;28;20953;-62
2023/05/07 07:13:13;;;;;;;4.32;2.35;;;;;;;18.48;64.27;96505.78;2077860;28;20193;-63
2023/05/07 07:14:15;;;;;;;7.05;2.83;;;;;;;18.63;63.84;96509.00;2074442;28;20197;-62
2023/05/07 07:15:16;;;;;;;11.70;2.80;;;;;;;18.64;64.39;96512.50;2073384;28;20796;-62
2023/05/07 07:16:18;;;;;;;4.30;2.20;;;;;;;18.34;64.82;96506.88;2071633;28;20583;-62
2023/05/07 07:17:19;;;;;;;4.20;2.30;;;;;;;18.63;64.78;96511.66;2072278;28;20568;-62
2023/05/07 07:18:21;;;;;;;7.20;2.40;;;;;;;18.27;65.35;96514.44;2074535;28;20711;-63
2023/05/07 07:19:22;;;;;;;4.72;2.50;;;;;;;18.31;65.94;96504.47;2070180;28;20563;-62
2023/05/07 07:20:24;;;;;;;4.35;3.20;;;;;;;18.51;65.74;96518.78;2069864;28;20202;-62
2023/05/07 07:21:25;;;;;;;4.93;2.72;;;;;;;18.48;67.07;96510.25;2074332;28;20317;-62
2023/05/07 07:22:27;;;;;;;5.82;2.30;;;;;;;18.24;66.78;96512.00;2070077;28;20194;-62
2023/05/07 07:23:28;;;;;;;8.65;2.92;;;;;;;18.12;66.60;96502.44;2071551;28;20213;-62
2023/05/07 07:24:29;;;;;;;6.45;2.47;;;;;;;17.94;66.63;96523.16;2071766;28;20619;-62
2023/05/07 07:25:31;;;;;;;7.55;2.63;;;;;;;18.06;66.13;96516.09;2072566;28;20200;-60
2023/05/07 07:26:33;;;;;;;6.00;3.45;;;;;;;17.86;66.19;96520.22;2072643;28;20608;-61
2023/05/07 07:27:34;;;;;;;10.68;3.15;;;;;;;17.78;67.15;96511.09;2073808;28;20332;-62
2023/05/07 07:28:42;;;;;;;5.35;2.70;;;;;;;17.78;66.57;96519.00;2074344;28;20210;-61
2023/05/07 07:29:45;;;;;;;5.88;4.03;;;;;;;17.27;67.56;96522.81;2074246;28;20535;-62
2023/05/07 07:30:47;;;;;;;8.63;3.45;;;;;;;16.98;68.65;96512.56;2069232;28;20228;-61
2023/05/07 07:33:02;;;;;;;6.03;3.40;;;;;;;16.36;70.24;96502.91;2082208;28;20567;-61
2023/05/07 07:41:07;;;;;;;7.85;4.03;;;;;;;16.98;70.24;96522.28;2082835;27;20573;-61
2023/05/07 07:43:08;;;;;;;5.25;3.08;;;;;;;17.22;69.54;96500.38;2105460;27;20563;-61
2023/05/07 07:44:12;;;;;;;7.07;3.08;;;;;;;17.32;68.99;96530.38;2103095;28;20661;-61
2023/05/07 07:46:23;;;;;;;5.75;3.30;;;;;;;17.06;70.69;96522.56;2084353;28;20558;-61
2023/05/07 07:47:25;;;;;;;8.23;4.53;;;;;;;17.14;70.15;96529.91;2078661;28;20583;-61
2023/05/07 07:48:27;;;;;;;13.13;3.70;;;;;;;17.11;70.15;96522.25;2082183;28;20571;-61
2023/05/07 07:49:28;;;;;;;8.43;3.28;;;;;;;17.16;70.25;96525.38;2079463;28;20204;-61
2023/05/07 07:50:30;;;;;;;5.05;3.30;;;;;;;17.29;70.00;96534.09;2073538;28;20208;-61
2023/05/07 07:51:45;;;;;;;5.88;3.30;;;;;;;17.30;70.45;96527.84;2070831;28;20723;-61
2023/05/07 07:52:48;;;;;;;7.43;3.63;;;;;;;17.44;69.87;96532.09;2069156;28;20238;-61
2023/05/07 07:53:49;;;;;;;4.30;2.95;;;;;;;17.67;69.70;96534.00;2069689;28;20300;-61
2023/05/07 07:54:51;;;;;;;4.60;2.90;;;;;;;17.93;69.17;96537.31;2071200;28;20677;-61
2023/05/07 07:55:52;;;;;;;6.82;3.88;;;;;;;17.83;68.61;96526.59;2068008;28;20213;-61
2023/05/07 07:56:59;;;;;;;5.93;3.15;;;;;;;17.98;68.86;96529.03;2066731;28;20232;-62
2023/05/07 07:58:01;;;;;;;4.55;3.17;;;;;;;18.25;68.50;96526.91;2069128;28;20208;-61
2023/05/07 07:59:02;;;;;;;5.90;3.60;;;;;;;18.60;67.86;96525.97;2066985;28;20300;-62
2023/05/07 08:00:06;;;;;;;8.10;4.53;;;;;;;18.52;67.55;96525.72;2067741;28;20666;-62
2023/05/07 08:01:07;;;;;;;5.47;2.92;;;;;;;18.68;67.02;96529.81;2069667;28;20224;-61
2023/05/07 08:02:09;;;;;;;6.28;3.53;;;;;;;18.71;67.09;96526.91;2070121;28;20236;-62
2023/05/07 08:03:10;;;;;;;5.93;2.65;;;;;;;18.81;66.84;96524.38;2070966;28;20576;-61
2023/05/07 08:04:12;;;;;;;8.15;3.70;;;;;;;18.81;67.11;96527.03;2072069;28;20280;-61
2023/05/07 08:05:15;;;;;;;8.40;3.90;;;;;;;18.76;66.50;96522.94;2070758;28;20201;-62
2023/05/07 08:07:14;;;;;;;4.93;3.38;;;;;;;18.73;67.54;96528.47;2085130;28;21039;-62
2023/05/07 08:08:16;;;;;;;6.07;3.80;;;;;;;18.80;67.46;96531.47;2081914;28;20196;-61
2023/05/07 08:09:17;;;;;;;6.30;3.33;;;;;;;18.84;67.32;96532.06;2083280;28;20208;-61
2023/05/07 08:11:21;;;;;;;10.82;3.15;;;;;;;18.29;67.28;96511.66;2082253;27;20552;-62
2023/05/07 08:12:23;;;;;;;5.53;3.55;;;;;;;18.65;67.12;96522.13;2081623;28;20201;-61
2023/05/07 08:13:24;;;;;;;7.20;3.22;;;;;;;18.92;67.18;96529.69;2081404;28;20560;-62
2023/05/07 08:14:28;;;;;;;5.75;3.55;;;;;;;18.88;66.20;96529.06;2081181;28;20228;-62
2023/05/07 08:15:30;;;;;;;4.97;3.22;;;;;;;18.67;66.61;96530.78;2078607;28;20243;-63
2023/05/07 08:16:31;;;;;;;4.70;2.80;;;;;;;18.73;65.67;96528.47;2079852;28;20603;-63
2023/05/07 08:17:33;;;;;;;4.03;2.70;;;;;;;18.17;65.61;96518.75;2079525;28;20198;-63
2023/05/07 08:18:34;;;;;;;4.47;2.88;;;;;;;18.76;65.22;96530.84;2077417;28;20708;-62
2023/05/07 08:19:36;;;;;;;10.05;2.80;;;;;;;19.15;63.97;96525.19;2078290;28;20393;-62
2023/05/07 08:20:39;;;;;;;4.30;3.47;;;;;;;19.31;63.93;96532.72;2079481;28;20204;-63
2023/05/07 08:21:40;;;;;;;7.60;3.45;;;;;;;18.99;64.50;96527.38;2080146;28;20204;-62
2023/05/07 08:22:42;;;;;;;7.30;3.17;;;;;;;18.88;64.35;96533.50;2079440;28;20200;-62
2023/05/07 08:23:43;;;;;;;9.32;3.33;;;;;;;18.94;63.63;96530.38;2080283;28;20274;-63
2023/05/07 08:24:45;;;;;;;8.98;3.17;;;;;;;19.12;63.97;96535.16;2079187;28;20311;-63
2023/05/07 08:25:46;;;;;;;7.60;4.18;;;;;;;19.47;63.04;96529.63;2076863;28;20253;-64
2023/05/07 08:26:48;;;;;;;5.22;3.20;;;;;;;19.66;63.15;96526.28;2076604;28;20192;-63
2023/05/07 08:27:49;;;;;;;8.00;3.50;;;;;;;19.76;61.96;96539.63;2076791;28;20566;-63
2023/05/07 08:28:50;;;;;;;6.53;2.90;;;;;;;19.95;62.10;96535.44;2077641;28;20205;-63
2023/05/07 08:29:53;;;;;;;4.75;2.53;;;;;;;19.93;61.53;96529.44;2079590;28;20207;-63
2023/05/07 08:30:56;;;;;;;5.30;3.42;;;;;;;19.79;62.40;96533.22;2079685;28;20646;-63
2023/05/07 08:31:57;;;;;;;6.00;3.42;;;;;;;20.35;61.29;96522.28;2080262;28;20231;-64
2023/05/07 08:33:00;;;;;;;4.30;2.50;;;;;;;20.38;60.84;96534.44;2081128;28;20216;-63
2023/05/07 08:34:03;;;;;;;5.97;3.05;;;;;;;20.28;60.52;96523.78;2076689;28;20252;-62
2023/05/07 08:35:05;;;;;;;3.47;2.53;;;;;;;20.35;60.22;96526.75;2079804;28;20197;-62
2023/05/07 08:36:06;;;;;;;7.63;3.45;;;;;;;20.49;59.49;96534.34;2073951;28;20253;-63
2023/05/07 08:37:08;;;;;;;9.68;3.50;;;;;;;20.60;59.95;96533.41;2077765;28;20258;-63
2023/05/07 08:38:09;;;;;;;10.32;2.60;;;;;;;20.53;60.18;96530.47;2080453;28;20201;-63
2023/05/07 08:39:11;;;;;;;8.52;2.88;;;;;;;20.81;60.32;96528.06;2079091;28;20608;-63
2023/05/07 08:40:12;;;;;;;4.60;2.30;;;;;;;21.05;59.74;96518.88;2074613;28;20633;-65
2023/05/07 08:41:15;;;;;;;4.00;2.47;;;;;;;21.27;59.13;96536.41;2074038;28;20837;-65
2023/05/07 08:42:17;;;;;;;5.18;2.53;;;;;;;21.23;58.13;96531.50;2080270;28;20204;-65
2023/05/07 08:43:19;;;;;;;4.32;2.30;;;;;;;20.94;59.59;96526.97;2079065;28;20200;-65
2023/05/07 08:44:22;;;;;;;7.90;2.30;;;;;;;20.74;59.40;96531.41;2080438;28;20221;-60
2023/05/07 08:45:25;;;;;;;7.38;2.42;;;;;;;20.58;59.75;96526.56;2077583;28;20200;-61
2023/05/07 08:46:31;;;;;;;5.55;2.88;;;;;;;20.50;59.22;96535.19;2076533;28;20248;-61
2023/05/07 08:47:42;;;;;;;4.40;2.92;;;;;;;20.77;59.15;96528.47;2076256;28;20198;-61
2023/05/07 08:48:44;;;;;;;4.32;2.33;;;;;;;20.73;59.91;96530.56;2075387;28;20203;-60
2023/05/07 08:49:46;;;;;;;4.57;2.85;;;;;;;20.24;59.31;96530.34;2076905;28;20201;-60
2023/05/07 08:50:47;;;;;;;5.32;2.55;;;;;;;20.66;59.58;96532.06;2075403;28;20222;-61
2023/05/07 08:51:49;;;;;;;4.25;2.20;;;;;;;21.04;58.11;96531.34;2078152;28;20236;-61
2023/05/07 08:52:51;;;;;;;5.18;2.50;;;;;;;21.15;58.51;96532.19;2076762;28;20197;-61
2023/05/07 08:53:52;;;;;;;5.10;2.03;;;;;;;21.56;57.79;96532.97;2078695;28;20672;-61
2023/05/07 08:54:53;;;;;;;4.63;2.80;;;;;;;21.67;57.54;96526.66;2077518;28;20200;-62
2023/05/07 08:55:56;;;;;;;7.38;2.13;;;;;;;21.56;58.13;96534.78;2074143;28;20228;-61
2023/05/07 08:56:57;;;;;;;5.63;2.38;;;;;;;21.44;58.27;96531.38;2074617;28;20251;-62
2023/05/07 08:58:00;;;;;;;5.40;2.00;;;;;;;21.64;56.33;96537.59;2075776;28;20202;-62
2023/05/07 08:59:03;;;;;;;4.22;2.17;;;;;;;21.49;56.55;96524.66;2075761;28;20299;-62
2023/05/07 09:00:07;;;;;;;5.00;2.22;;;;;;;21.41;57.31;96519.22;2078761;28;20224;-62
2023/05/07 09:01:16;;;;;;;4.32;2.55;;;;;;;21.87;56.79;96531.97;2078343;28;20213;-62
2023/05/07 09:02:17;;;;;;;3.25;1.80;;;;;;;21.25;57.46;96538.34;2076722;28;20203;-62
2023/05/07 09:03:19;;;;;;;6.97;2.10;;;;;;;20.78;56.27;96528.31;2077774;28;20201;-62
2023/05/07 09:04:21;;;;;;;2.70;1.95;;;;;;;21.09;57.11;96533.59;2079831;28;20193;-61
2023/05/07 09:05:22;;;;;;;4.70;2.10;;;;;;;21.43;56.71;96533.19;2080713;28;20221;-61
2023/05/07 09:06:24;;;;;;;4.93;2.00;;;;;;;21.41;57.62;96529.84;2079833;28;20250;-62
2023/05/07 09:07:26;;;;;;;7.57;2.63;;;;;;;21.77;56.82;96539.94;2078460;28;20201;-62
2023/05/07 09:08:29;;;;;;;4.07;2.20;;;;;;;21.54;55.93;96535.72;2079177;28;20602;-62
2023/05/07 09:09:33;;;;;;;8.27;2.92;;;;;;;21.52;56.56;96529.72;2077804;28;20197;-63
2023/05/07 09:10:34;;;;;;;4.78;2.40;;;;;;;21.74;55.96;96521.59;2078809;28;20207;-64
2023/05/07 09:11:36;;;;;;;4.45;2.35;;;;;;;21.68;56.01;96531.81;2080116;28;20243;-63
2023/05/07 09:12:39;;;;;;;4.25;1.83;;;;;;;21.71;55.96;96517.41;2079449;28;20200;-63
2023/05/07 09:13:40;;;;;;;5.72;2.05;;;;;;;21.83;55.89;96521.59;2075130;28;20229;-63
2023/05/07 09:14:41;;;;;;;6.25;2.40;;;;;;;21.85;55.46;96522.31;2079830;28;20215;-63
2023/05/07 09:15:43;;;;;;;6.95;2.25;;;;;;;21.78;55.32;96521.19;2078895;28;20204;-63
2023/05/07 09:16:46;;;;;;;38.05;3.60;;;;;;;21.71;54.67;96505.97;2080107;28;20364;-63
2023/05/07 09:17:47;;;;;;;8.10;2.80;;;;;;;22.06;55.30;96518.63;2079346;28;20198;-63
2023/05/07 09:18:53;;;;;;;4.95;2.03;;;;;;;22.30;53.83;96517.31;2074698;28;20197;-63
2023/05/07 09:19:55;;;;;;;3.63;2.03;;;;;;;22.46;54.08;96516.72;2076103;28;20228;-63
2023/05/07 09:20:56;;;;;;;5.15;2.35;;;;;;;22.58;54.87;96510.22;2075525;28;20252;-64
2023/05/07 09:22:02;;;;;;;4.75;1.85;;;;;;;22.04;56.20;96515.28;2077765;28;20208;-63
2023/05/07 09:23:06;;;;;;;4.93;2.35;;;;;;;22.17;56.38;96521.13;2068078;28;20198;-64
2023/05/07 09:24:08;;;;;;;3.58;1.92;;;;;;;22.30;54.91;96515.50;2063783;28;20650;-63
2023/05/07 09:25:09;;;;;;;6.72;2.75;;;;;;;22.44;54.93;96510.72;2068455;28;20202;-63
2023/05/07 09:26:11;;;;;;;4.32;2.25;;;;;;;22.64;54.02;96507.00;2071863;28;20236;-63
2023/05/07 09:27:13;;;;;;;4.07;2.00;;;;;;;22.74;54.08;96506.09;2075064;28;20194;-62
2023/05/07 09:28:14;;;;;;;6.80;2.15;;;;;;;22.93;53.37;96511.31;2075338;28;20288;-63
2023/05/07 09:29:17;;;;;;;4.63;1.92;;;;;;;22.89;53.64;96496.63;2075956;28;20208;-62
2023/05/07 09:30:18;;;;;;;3.40;1.80;;;;;;;23.18;52.80;96505.47;2070645;28;20285;-63
2023/05/07 09:31:20;;;;;;;4.88;2.10;;;;;;;23.34;52.93;96507.44;2066914;28;20226;-63
2023/05/07 09:32:22;;;;;;;5.72;2.25;;;;;;;22.96;54.09;96508.34;2067908;28;20226;-63
2023/05/07 09:33:27;;;;;;;10.60;2.30;;;;;;;23.03;52.94;96508.59;2068561;28;20195;-63
2023/05/07 09:34:30;;;;;;;3.78;1.80;;;;;;;22.40;54.04;96517.28;2071449;28;20658;-63
2023/05/07 09:35:31;;;;;;;3.08;1.90;;;;;;;22.56;53.22;96514.84;2069721;28;20200;-63
2023/05/07 09:36:33;;;;;;;5.35;2.22;;;;;;;22.57;54.24;96513.88;2075001;28;20597;-63
2023/05/07 09:37:36;;;;;;;4.85;2.50;;;;;;;22.70;53.94;96518.84;2075342;28;20204;-63
2023/05/07 09:38:38;;;;;;;4.13;2.08;;;;;;;22.97;54.32;96515.34;2072204;28;20198;-63
2023/05/07 09:39:47;;;;;;;3.88;2.22;;;;;;;23.08;53.63;96508.13;2074323;28;20201;-63
2023/05/07 09:41:02;;;;;;;5.28;2.20;;;;;;;23.19;52.72;96510.63;2072731;28;20308;-63
2023/05/07 09:42:04;;;;;;;6.15;2.50;;;;;;;22.71;52.48;96511.72;2082531;28;20556;-63
2023/05/07 09:43:11;;;;;;;9.50;2.65;;;;;;;23.54;51.66;96510.78;2080946;28;20197;-63
2023/05/07 09:44:14;;;;;;;5.60;1.90;;;;;;;23.79;51.51;96518.00;2074253;28;20194;-63
2023/05/07 09:45:26;;;;;;;3.58;2.08;;;;;;;23.67;51.18;96507.72;2073153;28;20213;-62
2023/05/07 09:46:30;;;;;;;2.83;1.70;;;;;;;23.64;51.87;96512.38;2072154;28;20290;-62
2023/05/07 09:47:32;;;;;;;3.70;2.00;;;;;;;23.52;51.37;96515.44;2073429;28;20856;-62
2023/05/07 09:48:39;;;;;;;3.55;1.90;;;;;;;23.63;51.16;96508.03;2074686;28;20202;-62
2023/05/07 09:49:44;;;;;;;3.05;1.63;;;;;;;23.20;52.21;96514.13;2073309;28;20205;-62
2023/05/07 09:50:54;;;;;;;3.80;2.28;;;;;;;22.64;53.98;96516.81;2071004;28;20257;-63
2023/05/07 09:51:57;;;;;;;8.98;2.30;;;;;;;22.29;53.99;96503.16;2073634;28;20568;-63
2023/05/07 09:52:59;;;;;;;5.35;2.15;;;;;;;22.67;53.80;96513.84;2074013;28;20226;-63
2023/05/07 09:54:03;;;;;;;5.70;2.35;;;;;;;22.43;54.47;96514.38;2070636;28;20214;-63
2023/05/07 09:55:05;;;;;;;5.47;2.15;;;;;;;21.74;55.11;96481.75;2070323;28;20193;-63
2023/05/07 09:56:07;;;;;;;4.18;1.70;;;;;;;22.29;55.03;96505.00;2072684;28;20317;-63
2023/05/07 09:57:11;;;;;;;5.82;2.22;;;;;;;21.67;54.48;96511.56;2072336;28;20610;-63
2023/05/07 09:58:16;;;;;;;8.95;2.42;;;;;;;21.26;55.32;96507.34;2069765;28;20202;-63
2023/05/07 09:59:20;;;;;;;3.95;2.25;;;;;;;21.32;56.13;96510.28;2072630;28;20194;-62
2023/05/07 10:00:22;;;;;;;4.00;2.13;;;;;;;21.39;56.11;96496.44;2074182;28;20644;-63
2023/05/07 10:01:25;;;;;;;3.17;2.13;;;;;;;21.48;56.24;96499.13;2071356;28;20241;-62
2023/05/07 10:02:30;;;;;;;4.47;2.28;;;;;;;21.74;55.13;96503.00;2075997;28;20209;-63
2023/05/07 10:03:35;;;;;;;4.78;2.00;;;;;;;21.60;55.18;96504.28;2075025;28;20197;-64
2023/05/07 10:04:36;;;;;;;4.30;1.70;;;;;;;21.43;56.60;96503.16;2072502;28;20434;-63
2023/05/07 10:05:39;;;;;;;4.75;2.17;;;;;;;21.71;55.41;96496.16;2070434;28;20644;-63
2023/05/07 10:06:41;;;;;;;3.97;2.20;;;;;;;21.48;55.44;96506.22;2071697;28;20206;-63
2023/05/07 10:07:44;;;;;;;4.68;2.22;;;;;;;21.62;55.03;96497.03;2072772;28;20231;-63
2023/05/07 10:08:46;;;;;;;5.22;2.15;;;;;;;22.09;54.23;96502.38;2068968;28;20204;-63
2023/05/07 10:09:48;;;;;;;3.13;2.10;;;;;;;22.33;54.54;96493.09;2070706;28;20276;-63
2023/05/07 10:10:50;;;;;;;3.70;2.25;;;;;;;22.37;53.91;96486.50;2070135;28;20228;-62
2023/05/07 10:11:52;;;;;;;5.93;2.22;;;;;;;22.50;53.79;96492.34;2068644;28;20886;-62
2023/05/07 10:12:54;;;;;;;5.97;2.20;;;;;;;22.23;53.37;96486.97;2075749;28;20276;-63
2023/05/07 10:13:56;;;;;;;5.70;2.10;;;;;;;22.06;53.92;96496.53;2075804;28;20205;-62
2023/05/07 10:14:58;;;;;;;3.45;1.85;;;;;;;21.98;53.29;96498.09;2074956;28;20564;-62
2023/05/07 10:15:59;;;;;;;4.18;1.98;;;;;;;21.76;54.35;96493.91;2072911;28;20272;-63
2023/05/07 10:17:02;;;;;;;7.28;2.10;;;;;;;21.44;55.57;96505.66;2071338;28;20217;-64
2023/05/07 10:18:06;;;;;;;6.20;2.13;;;;;;;21.84;54.26;96495.88;2070656;28;20658;-63
2023/05/07 10:19:12;;;;;;;3.03;1.45;;;;;;;22.01;54.20;96500.44;2073843;28;20292;-63
2023/05/07 10:20:13;;;;;;;4.70;2.20;;;;;;;21.79;54.41;96482.19;2072182;28;20281;-63
2023/05/07 10:21:19;;;;;;;2.97;1.95;;;;;;;21.86;54.04;96493.91;2074686;28;20217;-63
2023/05/07 10:22:22;;;;;;;4.20;2.05;;;;;;;22.23;54.26;96495.75;2074143;28;20246;-63
2023/05/07 10:23:25;;;;;;;3.53;2.00;;;;;;;22.04;53.62;96479.88;2071770;28;20204;-62
2023/05/07 10:24:32;;;;;;;6.10;2.05;;;;;;;22.05;54.13;96482.38;2071200;28;20468;-62
2023/05/07 10:25:34;;;;;;;5.28;2.20;;;;;;;21.98;53.89;96498.09;2068653;28;20202;-63
2023/05/07 10:26:36;;;;;;;4.35;1.65;;;;;;;21.83;53.91;96496.88;2072687;28;20561;-63
2023/05/07 10:27:38;;;;;;;4.97;2.08;;;;;;;21.92;53.93;96469.41;2072788;28;20228;-63
2023/05/07 10:28:44;;;;;;;5.85;1.95;;;;;;;22.20;53.36;96498.72;2065215;28;20194;-63
2023/05/07 10:30:21;;;;;;;13.18;1.90;;;;;;;22.39;52.95;96499.69;2070784;28;20645;-62
2023/05/07 10:31:58;;;;;;;9.13;2.83;;;;;;;21.91;52.78;96502.28;2063270;28;20225;-62
2023/05/07 10:33:05;;;;;;;3.80;1.88;;;;;;;21.83;52.38;96500.34;2071236;28;20727;-63
2023/05/07 10:34:12;;;;;;;6.43;2.30;;;;;;;22.06;52.98;96496.53;2069657;28;20259;-62
2023/05/07 10:35:25;;;;;;;6.43;2.03;;;;;;;22.25;52.65;96501.78;2074470;28;20194;-63
2023/05/07 10:36:27;;;;;;;5.20;2.08;;;;;;;22.16;52.77;96495.50;2073634;28;20303;-62
2023/05/07 10:37:29;;;;;;;3.50;2.00;;;;;;;22.38;53.02;96498.00;2075058;28;20204;-63
2023/05/07 10:38:31;;;;;;;3.95;2.00;;;;;;;22.05;53.29;96493.03;2072987;28;20232;-63
2023/05/07 10:39:32;;;;;;;4.20;1.95;;;;;;;22.24;52.93;96491.31;2071229;28;20758;-63
2023/05/07 10:40:34;;;;;;;5.57;1.55;;;;;;;22.45;52.92;96493.78;2070504;28;20236;-62
2023/05/07 10:41:36;;;;;;;5.90;1.80;;;;;;;22.62;52.70;96494.81;2074752;28;20194;-62
2023/05/07 10:42:38;;;;;;;6.07;2.05;;;;;;;22.53;53.59;96496.53;2073850;28;20188;-62
2023/05/07 10:43:41;;;;;;;7.50;2.35;;;;;;;22.61;54.70;96498.47;2071411;28;20217;-62
2023/05/07 10:44:43;;;;;;;5.35;2.17;;;;;;;22.55;56.33;96496.38;2074734;28;20210;-62
2023/05/07 10:46:17;;;;;;;5.55;2.40;;;;;;;22.51;57.82;96498.50;2072038;28;20202;-63
2023/05/07 10:47:19;;;;;;;11.85;3.28;;;;;;;22.46;58.59;96495.44;2071700;28;20209;-63
2023/05/07 10:48:20;;;;;;;6.70;2.85;;;;;;;22.46;59.23;96496.28;2071831;28;20201;-64
2023/05/07 10:49:31;;;;;;;4.05;2.70;;;;;;;22.49;59.36;96503.16;2069483;28;20421;-63
2023/05/07 10:50:32;;;;;;;9.68;2.55;;;;;;;22.53;59.28;96495.72;2072219;28;20553;-63
2023/05/07 10:51:35;;;;;;;9.95;2.70;;;;;;;22.50;59.36;96496.84;2072454;28;20540;-63
2023/05/07 10:52:36;;;;;;;4.80;2.58;;;;;;;22.44;58.87;96497.44;2074151;28;20230;-63
2023/05/07 10:53:38;;;;;;;8.88;3.00;;;;;;;22.46;59.04;96492.78;2074209;28;20205;-63
2023/05/07 10:54:40;;;;;;;4.40;2.60;;;;;;;22.43;59.09;96501.06;2072465;28;20220;-62
2023/05/07 10:55:41;;;;;;;5.05;2.40;;;;;;;22.39;59.28;96492.53;2069889;28;20579;-63
2023/05/07 10:56:43;;;;;;;6.05;2.95;;;;;;;22.30;59.94;96499.53;2069347;28;20197;-62
2023/05/07 10:57:44;;;;;;;6.25;2.85;;;;;;;22.24;60.40;96497.44;2072578;28;20707;-62
2023/05/07 10:58:46;;;;;;;5.65;2.83;;;;;;;22.24;60.47;96492.13;2069759;28;20224;-62
2023/05/07 10:59:47;;;;;;;4.95;3.13;;;;;;;22.27;60.79;96493.66;2073745;28;20198;-62
2023/05/07 11:00:49;;;;;;;6.90;3.47;;;;;;;21.90;61.20;96471.38;2072210;28;20238;-62
2023/05/07 11:01:53;;;;;;;7.07;3.63;;;;;;;21.89;61.34;96504.28;2072337;28;20209;-62
2023/05/07 11:03:00;;;;;;;7.70;4.07;;;;;;;21.77;61.43;96500.09;2073580;28;20234;-62
2023/05/07 12:25:19;;;;;;;6.43;4.35;;;;;;;19.55;73.54;96516.63;2083482;28;20563;-62
2023/05/07 12:27:53;;;;;;;6.55;3.85;;;;;;;19.34;73.28;96516.56;2083102;28;20568;-63
2023/05/07 12:30:38;;;;;;;8.20;2.97;;;;;;;19.11;71.12;96517.59;2084004;28;20581;-64
